createdAt,value
2023-03-12T00:00:57.765Z,99314.79
2023-03-12T00:03:28.704Z,99318.16
2023-03-12T00:06:09.830Z,99317.63
2023-03-12T00:08:41.744Z,99316.23
2023-03-12T00:11:15.035Z,99316.21
2023-03-12T00:13:49.858Z,99312.32
2023-03-12T00:16:21.517Z,99310.80
2023-03-12T00:18:56.564Z,99312.32
2023-03-12T00:21:28.203Z,99311.63
2023-03-12T00:23:59.087Z,99308.93
2023-03-12T00:26:30.074Z,99303.52
2023-03-12T00:29:01.088Z,99301.46
2023-03-12T00:31:33.904Z,99295.38
2023-03-12T00:34:05.281Z,99293.14
2023-03-12T00:36:36.627Z,99294.59
2023-03-12T00:39:08.210Z,99289.69
2023-03-12T00:41:39.250Z,99282.63
2023-03-12T00:44:10.278Z,99282.80
2023-03-12T00:46:41.226Z,99285.34
2023-03-12T00:49:12.486Z,99288.39
2023-03-12T00:51:43.604Z,99287.72
2023-03-12T00:54:14.453Z,99287.71
2023-03-12T00:56:46.874Z,99290.06
2023-03-12T00:59:18.317Z,99286.52
2023-03-12T01:01:50.500Z,99284.51
2023-03-12T01:04:21.630Z,99281.15
2023-03-12T01:06:52.551Z,99275.94
2023-03-12T01:09:23.455Z,99271.23
2023-03-12T01:11:55.883Z,99272.27
2023-03-12T01:14:27.709Z,99271.42
2023-03-12T01:16:59.068Z,99270.61
2023-03-12T01:19:30.394Z,99266.10
2023-03-12T01:22:01.342Z,99264.94
2023-03-12T01:24:33.410Z,99262.11
2023-03-12T01:27:04.422Z,99261.61
2023-03-12T01:29:35.632Z,99259.76
2023-03-12T01:32:07.882Z,99254.19
2023-03-12T01:34:38.856Z,99258.23
2023-03-12T01:37:11.474Z,99254.57
2023-03-12T01:39:42.898Z,99247.67
2023-03-12T01:42:15.216Z,99239.27
2023-03-12T01:44:54.881Z,99244.29
2023-03-12T01:47:26.733Z,99239.56
2023-03-12T01:49:59.181Z,99237.73
2023-03-12T01:52:33.512Z,99237.60
2023-03-12T01:55:10.494Z,99238.81
2023-03-12T01:57:48.806Z,99243.05
2023-03-12T02:00:25.173Z,99243.09
2023-03-12T02:03:00.015Z,99242.97
2023-03-12T02:05:43.764Z,99238.95
2023-03-12T02:08:16.724Z,99237.77
2023-03-12T02:10:48.652Z,99247.23
2023-03-12T02:13:19.981Z,99239.17
2023-03-12T02:15:51.395Z,99245.41
2023-03-12T02:18:22.900Z,99244.57
2023-03-12T02:21:03.623Z,99253.00
2023-03-12T02:23:39.641Z,99245.26
2023-03-12T02:26:13.268Z,99249.64
2023-03-12T02:28:46.705Z,99256.89
2023-03-12T02:31:21.915Z,99258.54
2023-03-12T02:33:53.053Z,99257.02
2023-03-12T02:36:24.255Z,99254.35
2023-03-12T02:38:56.947Z,99256.36
2023-03-12T02:41:30.475Z,99251.63
2023-03-12T02:44:05.758Z,99250.41
2023-03-12T02:46:40.768Z,99253.44
2023-03-12T02:49:13.422Z,99258.46
2023-03-12T02:51:45.717Z,99251.88
2023-03-12T02:54:18.236Z,99252.71
2023-03-12T02:56:50.063Z,99250.84
2023-03-12T02:59:22.982Z,99254.52
2023-03-12T03:01:57.868Z,99262.25
2023-03-12T03:04:29.916Z,99265.47
2023-03-12T03:07:01.173Z,99264.64
2023-03-12T03:09:32.305Z,99262.44
2023-03-12T03:12:03.607Z,99266.34
2023-03-12T03:14:35.504Z,99267.71
2023-03-12T03:17:06.600Z,99274.83
2023-03-12T03:19:37.446Z,99274.67
2023-03-12T03:22:09.240Z,99286.66
2023-03-12T03:24:40.271Z,99285.49
2023-03-12T03:27:11.258Z,99296.95
2023-03-12T03:29:42.370Z,99296.48
2023-03-12T03:32:13.319Z,99295.67
2023-03-12T03:34:44.541Z,99303.76
2023-03-12T03:37:15.808Z,99303.42
2023-03-12T03:39:47.246Z,99303.27
2023-03-12T03:42:18.475Z,99306.63
2023-03-12T03:44:49.724Z,99312.04
2023-03-12T03:47:21.525Z,99311.37
2023-03-12T03:49:52.514Z,99309.36
2023-03-12T03:52:23.573Z,99315.08
2023-03-12T03:54:54.732Z,99318.61
2023-03-12T03:57:25.978Z,99316.90
2023-03-12T04:00:00.917Z,99315.39
2023-03-12T04:02:33.664Z,99323.48
2023-03-12T04:05:05.193Z,99327.89
2023-03-12T04:07:36.146Z,99329.39
2023-03-12T04:10:08.449Z,99329.77
2023-03-12T04:12:39.519Z,99330.95
2023-03-12T04:15:11.441Z,99336.86
2023-03-12T04:17:42.923Z,99341.42
2023-03-12T04:20:15.840Z,99341.11
2023-03-12T04:22:46.948Z,99338.95
2023-03-12T04:25:18.521Z,99337.11
2023-03-12T04:27:49.363Z,99334.95
2023-03-12T04:30:20.770Z,99336.49
2023-03-12T04:32:52.861Z,99332.64
2023-03-12T04:35:26.525Z,99335.20
2023-03-12T04:37:57.483Z,99328.66
2023-03-12T04:40:29.035Z,99328.34
2023-03-12T04:43:00.236Z,99329.38
2023-03-12T04:45:33.189Z,99327.39
2023-03-12T04:48:05.014Z,99329.27
2023-03-12T04:50:36.903Z,99327.27
2023-03-12T04:53:08.048Z,99326.96
2023-03-12T04:55:39.192Z,99324.78
2023-03-12T04:58:10.166Z,99323.12
2023-03-12T05:00:43.665Z,99326.67
2023-03-12T05:03:15.071Z,99330.04
2023-03-12T05:05:46.846Z,99325.83
2023-03-12T05:08:18.371Z,99327.02
2023-03-12T05:10:49.597Z,99328.21
2023-03-12T05:13:23.600Z,99333.45
2023-03-12T05:15:59.159Z,99332.75
2023-03-12T05:18:30.695Z,99332.89
2023-03-12T05:21:03.675Z,99332.55
2023-03-12T05:23:35.402Z,99333.04
2023-03-12T05:26:06.641Z,99337.09
2023-03-12T05:28:38.329Z,99333.20
2023-03-12T05:31:13.022Z,99337.09
2023-03-12T05:33:44.506Z,99340.46
2023-03-12T05:36:17.968Z,99344.34
2023-03-12T05:38:49.677Z,99349.23
2023-03-12T05:41:24.549Z,99354.33
2023-03-12T05:43:58.281Z,99353.68
2023-03-12T05:46:30.144Z,99357.41
2023-03-12T05:49:02.085Z,99358.92
2023-03-12T05:51:35.853Z,99354.03
2023-03-12T05:54:06.887Z,99358.08
2023-03-12T05:56:38.649Z,99357.61
2023-03-12T05:59:10.824Z,99364.55
2023-03-12T06:01:43.020Z,99367.94
2023-03-12T06:04:14.042Z,99377.25
2023-03-12T06:06:45.011Z,99377.76
2023-03-12T06:09:15.993Z,99382.84
2023-03-12T06:11:46.998Z,99389.77
2023-03-12T06:14:18.147Z,99385.91
2023-03-12T06:16:49.365Z,99385.25
2023-03-12T06:19:20.492Z,99392.52
2023-03-12T06:21:53.602Z,99389.33
2023-03-12T06:24:24.720Z,99386.12
2023-03-12T06:27:03.089Z,99385.47
2023-03-12T06:29:33.975Z,99385.56
2023-03-12T06:32:05.197Z,99393.27
2023-03-12T06:34:36.234Z,99397.37
2023-03-12T06:37:07.362Z,99396.23
2023-03-12T06:39:38.776Z,99401.30
2023-03-12T06:42:11.084Z,99409.25
2023-03-12T06:44:42.016Z,99413.33
2023-03-12T06:47:13.057Z,99418.22
2023-03-12T06:49:44.033Z,99417.38
2023-03-12T06:52:15.078Z,99415.85
2023-03-12T06:54:46.191Z,99421.95
2023-03-12T06:57:17.993Z,99423.16
2023-03-12T06:59:50.657Z,99424.67
2023-03-12T07:02:21.747Z,99428.04
2023-03-12T07:04:53.050Z,99441.56
2023-03-12T07:07:24.252Z,99441.91
2023-03-12T07:09:55.145Z,99435.03
2023-03-12T07:12:26.213Z,99437.88
2023-03-12T07:14:57.118Z,99439.15
2023-03-12T07:17:28.208Z,99438.83
2023-03-12T07:19:59.771Z,99443.79
2023-03-12T07:22:30.812Z,99436.11
2023-03-12T07:25:01.844Z,99434.21
2023-03-12T07:27:33.071Z,99433.89
2023-03-12T07:30:03.998Z,99434.36
2023-03-12T07:32:36.832Z,99438.52
2023-03-12T07:35:08.910Z,99440.72
2023-03-12T07:37:40.139Z,99441.21
2023-03-12T07:40:13.382Z,99444.43
2023-03-12T07:42:44.307Z,99445.71
2023-03-12T07:45:18.344Z,99451.60
2023-03-12T07:47:50.153Z,99447.76
2023-03-12T07:50:22.056Z,99455.86
2023-03-12T07:52:52.993Z,99451.84
2023-03-12T07:55:24.324Z,99454.86
2023-03-12T07:57:58.587Z,99458.87
2023-03-12T08:00:31.090Z,99466.42
2023-03-12T08:03:02.375Z,99470.33
2023-03-12T08:05:34.071Z,99477.03
2023-03-12T08:08:05.132Z,99477.98
2023-03-12T08:10:37.251Z,99476.04
2023-03-12T08:13:08.458Z,99480.27
2023-03-12T08:15:39.372Z,99480.11
2023-03-12T08:18:10.518Z,99489.77
2023-03-12T08:20:41.484Z,99490.44
2023-03-12T08:23:12.599Z,99488.08
2023-03-12T08:25:47.911Z,99496.81
2023-03-12T08:28:20.689Z,99511.08
2023-03-12T08:30:53.256Z,99515.07
2023-03-12T08:33:28.048Z,99518.89
2023-03-12T08:35:59.092Z,99525.23
2023-03-12T08:38:30.064Z,99523.34
2023-03-12T08:41:02.332Z,99519.66
2023-03-12T08:43:33.427Z,99519.94
2023-03-12T08:46:06.159Z,99519.86
2023-03-12T08:48:37.479Z,99526.77
2023-03-12T08:51:09.369Z,99527.24
2023-03-12T08:53:40.525Z,99525.88
2023-03-12T08:56:12.100Z,99537.02
2023-03-12T08:58:43.598Z,99529.70
2023-03-12T09:01:15.303Z,99532.55
2023-03-12T09:03:47.610Z,99545.48
2023-03-12T09:06:19.579Z,99541.48
2023-03-12T09:08:54.428Z,99546.86
2023-03-12T09:11:25.689Z,99549.08
2023-03-12T09:14:33.562Z,99552.60
2023-03-12T09:16:47.966Z,99545.06
2023-03-12T09:19:19.173Z,99546.92
2023-03-12T09:21:50.244Z,99552.47
2023-03-12T09:24:21.637Z,99552.53
2023-03-12T09:26:52.844Z,99549.93
2023-03-12T09:29:24.844Z,99560.27
2023-03-12T09:31:55.996Z,99558.35
2023-03-12T09:34:27.216Z,99556.33
2023-03-12T09:36:58.490Z,99560.06
2023-03-12T09:39:29.803Z,99567.96
2023-03-12T09:42:00.958Z,99564.55
2023-03-12T09:44:39.335Z,99565.56
2023-03-12T09:47:19.045Z,99576.15
2023-03-12T09:49:55.069Z,99582.55
2023-03-12T09:52:35.080Z,99569.55
2023-03-12T09:55:15.082Z,99582.27
2023-03-12T09:57:47.464Z,99585.16
2023-03-12T10:00:29.805Z,99584.47
2023-03-12T10:03:24.018Z,99584.48
2023-03-12T10:06:10.249Z,99592.64
2023-03-12T10:09:02.077Z,99598.58
2023-03-12T10:11:43.252Z,99598.52
2023-03-12T10:14:38.230Z,99597.61
2023-03-12T10:17:31.495Z,99597.71
2023-03-12T10:20:22.111Z,99604.08
2023-03-12T10:23:01.704Z,99606.14
2023-03-12T10:25:42.447Z,99609.38
2023-03-12T10:28:19.836Z,99609.74
2023-03-12T10:30:56.078Z,99619.83
2023-03-12T10:33:39.980Z,99620.54
2023-03-12T10:36:18.612Z,99622.75
2023-03-12T10:38:50.860Z,99618.86
2023-03-12T10:41:25.359Z,99619.02
2023-03-12T10:43:58.350Z,99615.92
2023-03-12T10:46:46.994Z,99618.74
2023-03-12T10:49:31.360Z,99622.64
2023-03-12T10:52:06.244Z,99626.52
2023-03-12T10:54:44.836Z,99627.70
2023-03-12T10:57:17.106Z,99632.65
2023-03-12T10:59:51.875Z,99638.75
2023-03-12T11:02:38.772Z,99637.05
2023-03-12T11:05:24.837Z,99637.37
2023-03-12T11:07:57.130Z,99640.83
2023-03-12T11:10:47.237Z,99638.27
2023-03-12T11:13:31.275Z,99643.65
2023-03-12T11:16:04.652Z,99639.69
2023-03-12T11:18:40.566Z,99640.65
2023-03-12T11:21:22.813Z,99636.17
2023-03-12T11:24:14.456Z,99640.71
2023-03-12T11:26:58.828Z,99641.84
2023-03-12T11:29:36.640Z,99637.80
2023-03-12T11:32:17.706Z,99641.88
2023-03-12T11:34:50.470Z,99646.39
2023-03-12T11:37:32.949Z,99643.75
2023-03-12T11:40:18.150Z,99649.85
2023-03-12T11:43:05.445Z,99650.83
2023-03-12T11:45:49.217Z,99653.02
2023-03-12T11:48:32.840Z,99652.60
2023-03-12T11:51:17.377Z,99656.02
2023-03-12T11:54:07.930Z,99656.14
2023-03-12T11:56:45.919Z,99653.59
2023-03-12T11:59:32.289Z,99650.45
2023-03-12T12:02:18.908Z,99654.62
2023-03-12T12:08:22.206Z,99660.34
2023-03-12T12:11:02.476Z,99661.15
2023-03-12T12:13:44.202Z,99667.45
2023-03-12T12:16:36.076Z,99662.81
2023-03-12T12:19:20.346Z,99660.06
2023-03-12T12:22:10.948Z,99656.02
2023-03-12T12:25:13.814Z,99660.58
2023-03-12T12:27:51.562Z,99661.01
2023-03-12T12:30:29.925Z,99664.25
2023-03-12T12:33:22.845Z,99663.77
2023-03-12T12:35:54.176Z,99673.27
2023-03-12T12:38:34.327Z,99680.56
2023-03-12T12:41:12.672Z,99682.42
2023-03-12T12:43:48.411Z,99687.52
2023-03-12T12:46:22.283Z,99693.59
2023-03-12T12:48:57.016Z,99706.36
2023-03-12T12:51:31.507Z,99706.84
2023-03-12T12:54:09.872Z,99714.21
2023-03-12T12:56:50.066Z,99720.17
2023-03-12T12:59:33.344Z,99713.89
2023-03-12T13:02:13.739Z,99722.50
2023-03-12T13:04:45.763Z,99720.21
2023-03-12T13:07:37.952Z,99722.83
2023-03-12T13:10:48.955Z,99730.55
2023-03-12T13:13:30.054Z,99730.64
2023-03-12T13:16:29.353Z,99736.98
2023-03-12T13:19:02.620Z,99740.09
2023-03-12T13:21:41.838Z,99739.09
2023-03-12T13:24:23.908Z,99744.39
2023-03-12T13:27:05.842Z,99739.96
2023-03-12T13:29:43.268Z,99744.71
2023-03-12T13:33:02.037Z,99741.33
2023-03-12T13:35:37.345Z,99746.43
2023-03-12T13:38:19.050Z,99746.59
2023-03-12T13:41:02.439Z,99750.85
2023-03-12T13:43:56.612Z,99750.69
2023-03-12T13:46:43.032Z,99752.40
2023-03-12T13:49:21.083Z,99753.30
2023-03-12T13:52:23.501Z,99752.81
2023-03-12T13:55:03.025Z,99755.40
2023-03-12T13:57:41.242Z,99753.36
2023-03-12T14:00:22.091Z,99758.11
2023-03-12T14:03:00.974Z,99760.65
2023-03-12T14:05:36.229Z,99761.98
2023-03-12T14:08:41.004Z,99765.20
2023-03-12T14:11:28.763Z,99767.59
2023-03-12T14:14:34.936Z,99765.38
2023-03-12T14:17:05.878Z,99761.80
2023-03-12T14:19:37.852Z,99758.23
2023-03-12T14:22:13.680Z,99761.98
2023-03-12T14:24:54.373Z,99765.73
2023-03-12T14:27:30.804Z,99773.75
2023-03-12T14:30:11.539Z,99776.83
2023-03-12T14:32:45.250Z,99778.89
2023-03-12T14:35:23.371Z,99782.80
2023-03-12T14:38:00.952Z,99777.38
2023-03-12T14:40:41.130Z,99781.45
2023-03-12T14:43:27.154Z,99780.27
2023-03-12T14:46:00.355Z,99786.39
2023-03-12T14:48:33.808Z,99790.81
2023-03-12T14:51:06.587Z,99792.69
2023-03-12T14:53:39.768Z,99792.89
2023-03-12T14:56:16.882Z,99795.27
2023-03-12T14:58:50.034Z,99794.27
2023-03-12T15:01:24.421Z,99799.04
2023-03-12T15:03:58.483Z,99807.19
2023-03-12T15:06:33.855Z,99808.86
2023-03-12T15:09:06.744Z,99810.52
2023-03-12T15:11:38.786Z,99814.43
2023-03-12T15:14:14.921Z,99819.32
2023-03-12T15:16:46.644Z,99821.16
2023-03-12T15:19:21.828Z,99824.88
2023-03-12T15:21:51.393Z,99827.89
2023-03-12T15:24:22.677Z,99832.97
2023-03-12T15:26:53.364Z,99837.85
2023-03-12T15:29:27.973Z,99837.16
2023-03-12T15:32:00.836Z,99840.37
2023-03-12T15:34:35.323Z,99846.45
2023-03-12T15:37:28.781Z,99839.48
2023-03-12T15:40:00.537Z,99840.31
2023-03-12T15:42:37.987Z,99843.70
2023-03-12T15:45:20.700Z,99843.70
2023-03-12T15:47:53.259Z,99841.67
2023-03-12T15:50:28.297Z,99841.13
2023-03-12T15:53:25.612Z,99845.53
2023-03-12T15:56:04.759Z,99850.27
2023-03-12T15:58:37.164Z,99848.89
2023-03-12T16:01:13.586Z,99858.39
2023-03-12T16:03:46.530Z,99856.35
2023-03-12T16:06:20.119Z,99855.50
2023-03-12T16:08:54.712Z,99855.84
2023-03-12T16:11:27.756Z,99856.00
2023-03-12T16:14:04.138Z,99857.52
2023-03-12T16:16:35.623Z,99858.88
2023-03-12T16:19:10.883Z,99859.55
2023-03-12T16:21:42.137Z,99862.41
2023-03-12T16:24:13.482Z,99861.89
2023-03-12T16:26:50.936Z,99865.77
2023-03-12T16:29:23.242Z,99867.47
2023-03-12T16:31:56.775Z,99868.97
2023-03-12T16:34:28.067Z,99868.95
2023-03-12T16:36:59.281Z,99869.28
2023-03-12T16:39:33.264Z,99870.63
2023-03-12T16:42:06.991Z,99872.80
2023-03-12T16:44:38.019Z,99877.86
2023-03-12T16:47:13.374Z,99878.52
2023-03-12T16:49:46.163Z,99877.83
2023-03-12T16:52:22.435Z,99885.92
2023-03-12T16:54:54.261Z,99887.23
2023-03-12T16:57:33.184Z,99890.25
2023-03-12T17:00:08.020Z,99891.08
2023-03-12T17:02:39.758Z,99892.71
2023-03-12T17:05:12.666Z,99895.58
2023-03-12T17:07:44.098Z,99896.89
2023-03-12T17:10:17.861Z,99897.52
2023-03-12T17:12:49.265Z,99896.13
2023-03-12T17:15:23.730Z,99896.59
2023-03-12T17:17:56.806Z,99897.40
2023-03-12T17:20:29.022Z,99895.02
2023-03-12T17:23:00.220Z,99898.36
2023-03-12T17:25:33.262Z,99908.66
2023-03-12T17:28:04.798Z,99911.99
2023-03-12T17:30:36.869Z,99918.25
2023-03-12T17:33:11.214Z,99918.57
2023-03-12T17:35:43.606Z,99923.13
2023-03-12T17:38:15.323Z,99924.95
2023-03-12T17:40:46.548Z,99929.16
2023-03-12T17:43:17.517Z,99926.77
2023-03-12T17:45:48.422Z,99930.30
2023-03-12T17:48:20.165Z,99927.59
2023-03-12T17:50:51.254Z,99926.23
2023-03-12T17:53:22.337Z,99927.57
2023-03-12T17:55:53.171Z,99922.48
2023-03-12T17:58:24.577Z,99926.70
2023-03-12T18:00:55.505Z,99923.13
2023-03-12T18:03:27.369Z,99925.14
2023-03-12T18:05:58.318Z,99928.66
2023-03-12T18:08:29.487Z,99931.52
2023-03-12T18:11:01.750Z,99936.05
2023-03-12T18:13:32.805Z,99940.45
2023-03-12T18:16:03.639Z,99946.16
2023-03-12T18:18:34.461Z,99950.70
2023-03-12T18:21:05.570Z,99951.70
2023-03-12T18:23:36.453Z,99952.35
2023-03-12T18:26:09.086Z,99954.67
2023-03-12T18:28:40.657Z,99957.33
2023-03-12T18:31:12.910Z,99959.81
2023-03-12T18:33:44.635Z,99962.61
2023-03-12T18:36:15.546Z,99963.27
2023-03-12T18:38:46.830Z,99965.25
2023-03-12T18:41:18.614Z,99967.56
2023-03-12T18:43:50.328Z,99967.86
2023-03-12T18:46:23.921Z,99965.83
2023-03-12T18:48:55.905Z,99964.45
2023-03-12T18:51:26.756Z,99959.52
2023-03-12T18:53:58.597Z,99961.36
2023-03-12T18:56:32.182Z,99960.15
2023-03-12T18:59:04.807Z,99967.91
2023-03-12T19:01:36.108Z,99960.26
2023-03-12T19:04:07.399Z,99952.95
2023-03-12T19:06:50.314Z,99950.58
2023-03-12T19:09:22.604Z,99956.99
2023-03-12T19:11:53.768Z,99952.25
2023-03-12T19:14:26.373Z,99948.02
2023-03-12T19:16:57.418Z,99947.67
2023-03-12T19:19:28.648Z,99944.14
2023-03-12T19:21:59.530Z,99940.95
2023-03-12T19:24:30.490Z,99938.24
2023-03-12T19:27:01.359Z,99941.44
2023-03-12T19:29:32.387Z,99944.66
2023-03-12T19:32:03.157Z,99953.80
2023-03-12T19:34:34.089Z,99954.49
2023-03-12T19:37:04.844Z,99957.70
2023-03-12T19:39:35.657Z,99959.58
2023-03-12T19:42:06.572Z,99962.79
2023-03-12T19:44:39.141Z,99969.04
2023-03-12T19:47:09.969Z,99969.52
2023-03-12T19:49:41.067Z,99979.48
2023-03-12T19:52:12.038Z,99985.37
2023-03-12T19:54:49.095Z,99985.36
2023-03-12T19:57:25.797Z,99982.33
2023-03-12T19:59:56.727Z,99988.23
2023-03-12T20:02:27.634Z,99986.89
2023-03-12T20:04:58.516Z,99988.08
2023-03-12T20:07:29.503Z,99991.79
2023-03-12T20:10:00.745Z,99997.04
2023-03-12T20:12:31.525Z,99987.56
2023-03-12T20:15:02.371Z,99988.08
2023-03-12T20:17:33.152Z,99989.91
2023-03-12T20:20:05.891Z,99984.84
2023-03-12T20:22:37.120Z,99987.54
2023-03-12T20:25:10.458Z,99980.41
2023-03-12T20:27:41.370Z,99977.48
2023-03-12T20:30:14.890Z,99980.31
2023-03-12T20:32:45.775Z,99975.54
2023-03-12T20:35:16.663Z,99978.54
2023-03-12T20:37:47.443Z,99975.30
2023-03-12T20:40:18.805Z,99970.19
2023-03-12T20:42:49.577Z,99964.23
2023-03-12T20:45:20.874Z,99959.31
2023-03-12T20:47:51.800Z,99957.60
2023-03-12T20:50:22.599Z,99955.39
2023-03-12T20:52:53.394Z,99957.25
2023-03-12T20:55:24.446Z,99952.69
2023-03-12T20:57:55.292Z,99953.19
2023-03-12T21:00:26.689Z,99955.72
2023-03-12T21:02:57.518Z,99953.69
2023-03-12T21:05:29.222Z,99949.45
2023-03-12T21:08:00.758Z,99946.41
2023-03-12T21:10:31.872Z,99944.71
2023-03-12T21:13:02.862Z,99944.02
2023-03-12T21:15:33.774Z,99940.62
2023-03-12T21:18:04.869Z,99938.74
2023-03-12T21:20:37.619Z,99931.45
2023-03-12T21:23:08.910Z,99923.98
2023-03-12T21:25:41.653Z,99928.51
2023-03-12T21:28:13.338Z,99931.70
2023-03-12T21:30:44.206Z,99933.20
2023-03-12T21:33:15.146Z,99932.14
2023-03-12T21:35:48.002Z,99934.14
2023-03-12T21:38:18.850Z,99933.44
2023-03-12T21:40:49.768Z,99931.70
2023-03-12T21:43:20.831Z,99931.87
2023-03-12T21:45:51.934Z,99934.57
2023-03-12T21:48:22.779Z,99932.01
2023-03-12T21:50:53.944Z,99924.74
2023-03-12T21:53:29.393Z,99921.48
2023-03-12T21:56:02.147Z,99922.80
2023-03-12T21:58:34.525Z,99916.02
2023-03-12T22:01:11.508Z,99911.95
2023-03-12T22:03:44.665Z,99912.98
2023-03-12T22:06:16.859Z,99914.00
2023-03-12T22:08:49.258Z,99911.98
2023-03-12T22:11:20.051Z,99910.79
2023-03-12T22:13:50.753Z,99907.41
2023-03-12T22:16:21.544Z,99903.64
2023-03-12T22:18:54.519Z,99901.08
2023-03-12T22:21:26.224Z,99903.21
2023-03-12T22:23:58.270Z,99907.25
2023-03-12T22:26:29.490Z,99906.09
2023-03-12T22:29:01.390Z,99908.30
2023-03-12T22:31:32.738Z,99906.77
2023-03-12T22:34:03.969Z,99907.30
2023-03-12T22:36:34.793Z,99909.17
2023-03-12T22:39:07.815Z,99905.63
2023-03-12T22:41:38.691Z,99894.66
2023-03-12T22:44:11.229Z,99893.67
2023-03-12T22:46:42.083Z,99891.13
2023-03-12T22:49:12.996Z,99894.65
2023-03-12T22:51:44.086Z,99891.41
2023-03-12T22:54:14.860Z,99887.64
2023-03-12T22:56:45.577Z,99892.16
2023-03-12T22:59:16.313Z,99891.43
2023-03-12T23:01:47.111Z,99892.60
2023-03-12T23:04:17.863Z,99889.58
2023-03-12T23:06:48.694Z,99881.64
2023-03-12T23:09:19.532Z,99875.76
2023-03-12T23:11:50.188Z,99871.86
2023-03-12T23:14:20.939Z,99872.05
2023-03-12T23:16:51.637Z,99867.19
2023-03-12T23:19:22.368Z,99869.38
2023-03-12T23:21:56.455Z,99871.45
2023-03-12T23:24:30.345Z,99874.01
2023-03-12T23:27:14.583Z,99882.45
2023-03-12T23:29:45.350Z,99877.23
2023-03-12T23:32:30.830Z,99864.60
2023-03-12T23:35:21.309Z,99845.55
2023-03-12T23:37:53.348Z,99838.30
2023-03-12T23:40:24.200Z,99832.70
2023-03-12T23:42:54.910Z,99837.44
2023-03-12T23:45:25.795Z,99844.55
2023-03-12T23:47:56.566Z,99853.17
2023-03-12T23:50:28.961Z,99843.92
2023-03-12T23:52:59.992Z,99836.85
2023-03-12T23:55:31.038Z,99837.52
2023-03-12T23:58:02.441Z,99836.38
